sensor_id;sensor_type;location;lat;lon;timestamp;temperature;humidity
8862;DHT22;4799;50.996;4.754;2023-02-13T00:01:17;3.60;99.90
8862;DHT22;4799;50.996;4.754;2023-02-13T00:03:43;3.50;99.90
8862;DHT22;4799;50.996;4.754;2023-02-13T00:06:10;3.50;99.90
8862;DHT22;4799;50.996;4.754;2023-02-13T00:08:35;3.40;99.90
8862;DHT22;4799;50.996;4.754;2023-02-13T00:11:01;3.40;99.90
8862;DHT22;4799;50.996;4.754;2023-02-13T00:13:27;3.30;99.90
8862;DHT22;4799;50.996;4.754;2023-02-13T00:15:58;3.30;99.90
8862;DHT22;4799;50.996;4.754;2023-02-13T00:18:25;3.30;99.90
8862;DHT22;4799;50.996;4.754;2023-02-13T00:21:10;3.30;99.90
8862;DHT22;4799;50.996;4.754;2023-02-13T00:23:37;3.30;99.90
8862;DHT22;4799;50.996;4.754;2023-02-13T00:26:09;3.20;99.90
8862;DHT22;4799;50.996;4.754;2023-02-13T00:28:36;3.20;99.90
8862;DHT22;4799;50.996;4.754;2023-02-13T00:31:07;3.20;99.90
8862;DHT22;4799;50.996;4.754;2023-02-13T00:33:33;3.20;99.90
8862;DHT22;4799;50.996;4.754;2023-02-13T00:36:10;3.10;99.90
8862;DHT22;4799;50.996;4.754;2023-02-13T00:38:38;3.10;99.90
8862;DHT22;4799;50.996;4.754;2023-02-13T00:41:04;3.10;99.90
8862;DHT22;4799;50.996;4.754;2023-02-13T00:43:30;3.10;99.90
8862;DHT22;4799;50.996;4.754;2023-02-13T00:45:56;3.00;99.90
8862;DHT22;4799;50.996;4.754;2023-02-13T00:48:26;3.00;99.90
8862;DHT22;4799;50.996;4.754;2023-02-13T00:50:52;3.00;99.90
8862;DHT22;4799;50.996;4.754;2023-02-13T00:53:20;2.90;99.90
8862;DHT22;4799;50.996;4.754;2023-02-13T00:55:46;2.90;99.90
8862;DHT22;4799;50.996;4.754;2023-02-13T00:58:12;2.90;99.90
8862;DHT22;4799;50.996;4.754;2023-02-13T01:00:38;2.80;99.90
8862;DHT22;4799;50.996;4.754;2023-02-13T01:03:04;2.80;99.90
8862;DHT22;4799;50.996;4.754;2023-02-13T01:05:30;2.80;99.90
8862;DHT22;4799;50.996;4.754;2023-02-13T01:07:55;2.70;99.90
8862;DHT22;4799;50.996;4.754;2023-02-13T01:10:23;2.70;99.90
8862;DHT22;4799;50.996;4.754;2023-02-13T01:12:49;2.70;99.90
8862;DHT22;4799;50.996;4.754;2023-02-13T01:15:14;2.70;99.90
8862;DHT22;4799;50.996;4.754;2023-02-13T01:17:40;2.60;99.90
8862;DHT22;4799;50.996;4.754;2023-02-13T01:20:08;2.60;99.90
8862;DHT22;4799;50.996;4.754;2023-02-13T01:22:34;2.60;99.90
8862;DHT22;4799;50.996;4.754;2023-02-13T01:25:00;2.60;99.90
8862;DHT22;4799;50.996;4.754;2023-02-13T01:27:27;2.60;99.90
8862;DHT22;4799;50.996;4.754;2023-02-13T01:29:53;2.50;99.90
8862;DHT22;4799;50.996;4.754;2023-02-13T01:32:20;2.50;99.90
8862;DHT22;4799;50.996;4.754;2023-02-13T01:34:46;2.40;99.90
8862;DHT22;4799;50.996;4.754;2023-02-13T01:37:12;2.40;99.90
8862;DHT22;4799;50.996;4.754;2023-02-13T01:39:38;2.40;99.90
8862;DHT22;4799;50.996;4.754;2023-02-13T01:42:05;2.40;99.90
8862;DHT22;4799;50.996;4.754;2023-02-13T01:44:55;2.40;99.90
8862;DHT22;4799;50.996;4.754;2023-02-13T01:47:40;2.40;99.90
8862;DHT22;4799;50.996;4.754;2023-02-13T01:50:21;2.30;99.90
8862;DHT22;4799;50.996;4.754;2023-02-13T01:53:00;2.30;99.90
8862;DHT22;4799;50.996;4.754;2023-02-13T01:55:27;2.30;99.90
8862;DHT22;4799;50.996;4.754;2023-02-13T01:58:00;2.20;99.90
8862;DHT22;4799;50.996;4.754;2023-02-13T02:00:27;2.20;99.90
8862;DHT22;4799;50.996;4.754;2023-02-13T02:03:07;2.10;99.90
8862;DHT22;4799;50.996;4.754;2023-02-13T02:05:36;2.10;99.90
8862;DHT22;4799;50.996;4.754;2023-02-13T02:08:04;2.00;99.90
8862;DHT22;4799;50.996;4.754;2023-02-13T02:10:31;2.00;99.90
8862;DHT22;4799;50.996;4.754;2023-02-13T02:13:08;2.00;99.90
8862;DHT22;4799;50.996;4.754;2023-02-13T02:15:35;2.00;99.90
8862;DHT22;4799;50.996;4.754;2023-02-13T02:18:01;2.00;99.90
8862;DHT22;4799;50.996;4.754;2023-02-13T02:23:49;2.10;99.90
8862;DHT22;4799;50.996;4.754;2023-02-13T02:29:30;2.00;99.90
8862;DHT22;4799;50.996;4.754;2023-02-13T02:43:20;2.00;99.90
8862;DHT22;4799;50.996;4.754;2023-02-13T02:46:07;2.00;99.90
8862;DHT22;4799;50.996;4.754;2023-02-13T02:48:43;1.90;99.90
8862;DHT22;4799;50.996;4.754;2023-02-13T02:51:40;1.90;99.90
8862;DHT22;4799;50.996;4.754;2023-02-13T02:54:28;1.90;99.90
8862;DHT22;4799;50.996;4.754;2023-02-13T02:57:23;1.90;99.90
8862;DHT22;4799;50.996;4.754;2023-02-13T02:59:50;1.80;99.90
8862;DHT22;4799;50.996;4.754;2023-02-13T03:02:36;1.80;99.90
8862;DHT22;4799;50.996;4.754;2023-02-13T03:05:28;1.80;99.90
8862;DHT22;4799;50.996;4.754;2023-02-13T03:08:14;1.80;99.90
8862;DHT22;4799;50.996;4.754;2023-02-13T03:11:00;1.80;99.90
8862;DHT22;4799;50.996;4.754;2023-02-13T03:13:47;1.80;99.90
8862;DHT22;4799;50.996;4.754;2023-02-13T03:16:24;1.80;99.90
8862;DHT22;4799;50.996;4.754;2023-02-13T03:19:21;1.80;99.90
8862;DHT22;4799;50.996;4.754;2023-02-13T03:25:11;1.70;99.90
8862;DHT22;4799;50.996;4.754;2023-02-13T03:28:21;1.60;99.90
8862;DHT22;4799;50.996;4.754;2023-02-13T03:31:25;1.60;99.90
8862;DHT22;4799;50.996;4.754;2023-02-13T03:34:06;1.60;99.90
8862;DHT22;4799;50.996;4.754;2023-02-13T03:45:26;1.50;99.90
8862;DHT22;4799;50.996;4.754;2023-02-13T03:47:53;1.50;99.90
8862;DHT22;4799;50.996;4.754;2023-02-13T03:50:20;1.50;99.90
8862;DHT22;4799;50.996;4.754;2023-02-13T03:53:06;1.50;99.90
8862;DHT22;4799;50.996;4.754;2023-02-13T03:55:36;1.60;99.90
8862;DHT22;4799;50.996;4.754;2023-02-13T03:58:28;1.60;99.90
8862;DHT22;4799;50.996;4.754;2023-02-13T04:01:16;1.60;99.90
8862;DHT22;4799;50.996;4.754;2023-02-13T04:04:07;1.70;99.90
8862;DHT22;4799;50.996;4.754;2023-02-13T04:07:01;1.70;99.90
8862;DHT22;4799;50.996;4.754;2023-02-13T04:09:29;1.70;99.90
8862;DHT22;4799;50.996;4.754;2023-02-13T04:12:07;1.80;99.90
8862;DHT22;4799;50.996;4.754;2023-02-13T04:17:28;1.80;99.90
8862;DHT22;4799;50.996;4.754;2023-02-13T04:19:55;1.80;99.90
8862;DHT22;4799;50.996;4.754;2023-02-13T04:22:21;1.80;99.90
8862;DHT22;4799;50.996;4.754;2023-02-13T04:24:47;1.70;99.90
8862;DHT22;4799;50.996;4.754;2023-02-13T04:27:14;1.70;99.90
8862;DHT22;4799;50.996;4.754;2023-02-13T04:29:41;1.70;99.90
8862;DHT22;4799;50.996;4.754;2023-02-13T04:32:08;1.60;99.90
8862;DHT22;4799;50.996;4.754;2023-02-13T04:34:34;1.60;99.90
8862;DHT22;4799;50.996;4.754;2023-02-13T04:36:59;1.60;99.90
8862;DHT22;4799;50.996;4.754;2023-02-13T04:39:25;1.50;99.90
8862;DHT22;4799;50.996;4.754;2023-02-13T04:41:51;1.50;99.90
8862;DHT22;4799;50.996;4.754;2023-02-13T04:44:16;1.50;99.90
8862;DHT22;4799;50.996;4.754;2023-02-13T04:46:42;1.50;99.90
8862;DHT22;4799;50.996;4.754;2023-02-13T04:49:09;1.40;99.90
8862;DHT22;4799;50.996;4.754;2023-02-13T04:51:35;1.50;99.90
8862;DHT22;4799;50.996;4.754;2023-02-13T04:54:01;1.40;99.90
8862;DHT22;4799;50.996;4.754;2023-02-13T04:56:27;1.40;99.90
8862;DHT22;4799;50.996;4.754;2023-02-13T04:58:53;1.30;99.90
8862;DHT22;4799;50.996;4.754;2023-02-13T05:01:20;1.30;99.90
8862;DHT22;4799;50.996;4.754;2023-02-13T05:03:45;1.20;99.90
8862;DHT22;4799;50.996;4.754;2023-02-13T05:06:11;1.10;99.90
8862;DHT22;4799;50.996;4.754;2023-02-13T05:08:37;1.10;99.90
8862;DHT22;4799;50.996;4.754;2023-02-13T05:11:03;1.00;99.90
8862;DHT22;4799;50.996;4.754;2023-02-13T05:13:29;1.00;99.90
8862;DHT22;4799;50.996;4.754;2023-02-13T05:15:55;1.00;99.90
8862;DHT22;4799;50.996;4.754;2023-02-13T05:18:20;1.00;99.90
8862;DHT22;4799;50.996;4.754;2023-02-13T05:20:46;1.00;99.90
8862;DHT22;4799;50.996;4.754;2023-02-13T05:23:32;0.90;99.90
8862;DHT22;4799;50.996;4.754;2023-02-13T05:25:57;0.90;99.90
8862;DHT22;4799;50.996;4.754;2023-02-13T05:28:24;0.90;99.90
8862;DHT22;4799;50.996;4.754;2023-02-13T05:31:08;0.80;99.90
8862;DHT22;4799;50.996;4.754;2023-02-13T05:33:34;0.80;99.90
8862;DHT22;4799;50.996;4.754;2023-02-13T05:36:00;0.80;99.90
8862;DHT22;4799;50.996;4.754;2023-02-13T05:38:25;0.70;99.90
8862;DHT22;4799;50.996;4.754;2023-02-13T05:40:51;0.70;99.90
8862;DHT22;4799;50.996;4.754;2023-02-13T05:43:18;0.60;99.90
8862;DHT22;4799;50.996;4.754;2023-02-13T05:45:44;0.60;99.90
8862;DHT22;4799;50.996;4.754;2023-02-13T05:48:10;0.50;99.90
8862;DHT22;4799;50.996;4.754;2023-02-13T05:50:36;0.50;99.90
8862;DHT22;4799;50.996;4.754;2023-02-13T05:53:01;0.50;99.90
8862;DHT22;4799;50.996;4.754;2023-02-13T05:55:27;0.40;99.90
8862;DHT22;4799;50.996;4.754;2023-02-13T05:57:56;0.40;99.90
8862;DHT22;4799;50.996;4.754;2023-02-13T06:00:24;0.30;99.90
8862;DHT22;4799;50.996;4.754;2023-02-13T06:02:49;0.30;99.90
8862;DHT22;4799;50.996;4.754;2023-02-13T06:05:15;0.30;99.90
8862;DHT22;4799;50.996;4.754;2023-02-13T06:07:41;0.20;99.90
8862;DHT22;4799;50.996;4.754;2023-02-13T06:10:07;0.20;99.90
8862;DHT22;4799;50.996;4.754;2023-02-13T06:12:33;0.20;99.90
8862;DHT22;4799;50.996;4.754;2023-02-13T06:14:59;0.20;99.90
8862;DHT22;4799;50.996;4.754;2023-02-13T06:17:25;0.20;99.90
8862;DHT22;4799;50.996;4.754;2023-02-13T06:19:50;0.10;99.90
8862;DHT22;4799;50.996;4.754;2023-02-13T06:22:16;0.10;99.90
8862;DHT22;4799;50.996;4.754;2023-02-13T06:24:43;0.10;99.90
8862;DHT22;4799;50.996;4.754;2023-02-13T06:27:09;0.10;99.90
8862;DHT22;4799;50.996;4.754;2023-02-13T06:29:35;0.00;99.90
8862;DHT22;4799;50.996;4.754;2023-02-13T06:32:02;0.00;99.90
8862;DHT22;4799;50.996;4.754;2023-02-13T06:34:28;0.00;99.90
8862;DHT22;4799;50.996;4.754;2023-02-13T06:36:53;-0.10;99.90
8862;DHT22;4799;50.996;4.754;2023-02-13T06:39:19;-0.10;99.90
8862;DHT22;4799;50.996;4.754;2023-02-13T06:41:45;-0.10;99.90
8862;DHT22;4799;50.996;4.754;2023-02-13T06:44:10;-0.10;99.90
8862;DHT22;4799;50.996;4.754;2023-02-13T06:46:36;-0.20;99.90
8862;DHT22;4799;50.996;4.754;2023-02-13T06:49:02;-0.20;99.90
8862;DHT22;4799;50.996;4.754;2023-02-13T06:51:28;-0.20;99.90
8862;DHT22;4799;50.996;4.754;2023-02-13T06:53:55;-0.20;99.90
8862;DHT22;4799;50.996;4.754;2023-02-13T06:56:20;-0.20;99.90
8862;DHT22;4799;50.996;4.754;2023-02-13T06:58:46;-0.20;99.90
8862;DHT22;4799;50.996;4.754;2023-02-13T07:01:12;-0.20;99.90
8862;DHT22;4799;50.996;4.754;2023-02-13T07:03:38;-0.20;99.90
8862;DHT22;4799;50.996;4.754;2023-02-13T07:06:04;-0.20;99.90
8862;DHT22;4799;50.996;4.754;2023-02-13T07:08:30;-0.20;99.90
8862;DHT22;4799;50.996;4.754;2023-02-13T07:10:56;-0.20;99.90
8862;DHT22;4799;50.996;4.754;2023-02-13T07:13:22;-0.20;99.90
8862;DHT22;4799;50.996;4.754;2023-02-13T07:15:47;-0.20;99.90
8862;DHT22;4799;50.996;4.754;2023-02-13T07:18:13;-0.20;99.90
8862;DHT22;4799;50.996;4.754;2023-02-13T07:20:40;-0.20;99.90
8862;DHT22;4799;50.996;4.754;2023-02-13T07:23:06;-0.20;99.90
8862;DHT22;4799;50.996;4.754;2023-02-13T07:25:33;-0.10;99.90
8862;DHT22;4799;50.996;4.754;2023-02-13T07:28:01;-0.10;99.90
8862;DHT22;4799;50.996;4.754;2023-02-13T07:30:28;-0.10;99.90
8862;DHT22;4799;50.996;4.754;2023-02-13T07:33:00;-0.10;99.90
8862;DHT22;4799;50.996;4.754;2023-02-13T07:35:26;0.00;99.90
8862;DHT22;4799;50.996;4.754;2023-02-13T07:37:55;0.00;99.90
8862;DHT22;4799;50.996;4.754;2023-02-13T07:40:20;0.00;99.90
8862;DHT22;4799;50.996;4.754;2023-02-13T07:42:46;0.10;99.90
8862;DHT22;4799;50.996;4.754;2023-02-13T07:45:12;0.10;99.90
8862;DHT22;4799;50.996;4.754;2023-02-13T07:47:40;0.10;99.90
8862;DHT22;4799;50.996;4.754;2023-02-13T07:50:06;0.20;99.90
8862;DHT22;4799;50.996;4.754;2023-02-13T07:52:32;0.20;99.90
8862;DHT22;4799;50.996;4.754;2023-02-13T07:54:58;0.30;99.90
8862;DHT22;4799;50.996;4.754;2023-02-13T07:57:23;0.30;99.90
8862;DHT22;4799;50.996;4.754;2023-02-13T07:59:49;0.30;99.90
8862;DHT22;4799;50.996;4.754;2023-02-13T08:02:15;0.40;99.90
8862;DHT22;4799;50.996;4.754;2023-02-13T08:04:42;0.40;99.90
8862;DHT22;4799;50.996;4.754;2023-02-13T08:07:11;0.50;99.90
8862;DHT22;4799;50.996;4.754;2023-02-13T08:09:37;0.60;99.90
8862;DHT22;4799;50.996;4.754;2023-02-13T08:12:21;0.60;99.90
8862;DHT22;4799;50.996;4.754;2023-02-13T08:14:47;0.70;99.90
8862;DHT22;4799;50.996;4.754;2023-02-13T08:17:13;0.70;99.90
8862;DHT22;4799;50.996;4.754;2023-02-13T08:19:39;0.80;99.90
8862;DHT22;4799;50.996;4.754;2023-02-13T08:22:05;0.80;99.90
8862;DHT22;4799;50.996;4.754;2023-02-13T08:24:31;0.90;99.90
8862;DHT22;4799;50.996;4.754;2023-02-13T08:26:57;0.90;99.90
8862;DHT22;4799;50.996;4.754;2023-02-13T08:29:23;1.00;99.90
8862;DHT22;4799;50.996;4.754;2023-02-13T08:31:48;1.00;99.90
8862;DHT22;4799;50.996;4.754;2023-02-13T08:34:14;1.10;99.90
8862;DHT22;4799;50.996;4.754;2023-02-13T08:36:40;1.20;99.90
8862;DHT22;4799;50.996;4.754;2023-02-13T08:39:07;1.20;99.90
8862;DHT22;4799;50.996;4.754;2023-02-13T08:41:33;1.30;99.90
8862;DHT22;4799;50.996;4.754;2023-02-13T08:44:00;1.40;99.90
8862;DHT22;4799;50.996;4.754;2023-02-13T08:46:25;1.40;99.90
8862;DHT22;4799;50.996;4.754;2023-02-13T08:48:51;1.50;99.90
8862;DHT22;4799;50.996;4.754;2023-02-13T08:51:17;1.60;99.90
8862;DHT22;4799;50.996;4.754;2023-02-13T08:53:43;1.70;99.90
8862;DHT22;4799;50.996;4.754;2023-02-13T08:56:09;1.70;99.90
8862;DHT22;4799;50.996;4.754;2023-02-13T08:58:36;1.80;99.90
8862;DHT22;4799;50.996;4.754;2023-02-13T09:01:06;1.90;99.90
8862;DHT22;4799;50.996;4.754;2023-02-13T09:03:33;2.00;99.90
8862;DHT22;4799;50.996;4.754;2023-02-13T09:06:00;2.10;99.90
8862;DHT22;4799;50.996;4.754;2023-02-13T09:08:27;2.30;99.90
8862;DHT22;4799;50.996;4.754;2023-02-13T09:11:01;2.40;99.90
8862;DHT22;4799;50.996;4.754;2023-02-13T09:13:29;2.50;99.90
8862;DHT22;4799;50.996;4.754;2023-02-13T09:16:05;2.60;99.90
8862;DHT22;4799;50.996;4.754;2023-02-13T09:18:32;2.70;99.90
8862;DHT22;4799;50.996;4.754;2023-02-13T09:20:59;2.80;99.90
8862;DHT22;4799;50.996;4.754;2023-02-13T09:23:25;2.90;99.90
8862;DHT22;4799;50.996;4.754;2023-02-13T09:25:51;3.00;99.90
8862;DHT22;4799;50.996;4.754;2023-02-13T09:28:17;3.20;99.90
8862;DHT22;4799;50.996;4.754;2023-02-13T09:30:43;3.30;99.90
8862;DHT22;4799;50.996;4.754;2023-02-13T09:33:09;3.40;99.90
8862;DHT22;4799;50.996;4.754;2023-02-13T09:35:36;3.50;99.90
8862;DHT22;4799;50.996;4.754;2023-02-13T09:38:02;3.60;99.90
8862;DHT22;4799;50.996;4.754;2023-02-13T09:40:35;3.70;99.90
8862;DHT22;4799;50.996;4.754;2023-02-13T09:43:30;3.80;99.90
8862;DHT22;4799;50.996;4.754;2023-02-13T09:46:03;3.90;99.90
8862;DHT22;4799;50.996;4.754;2023-02-13T09:48:34;4.00;99.90
8862;DHT22;4799;50.996;4.754;2023-02-13T09:51:01;4.10;99.90
8862;DHT22;4799;50.996;4.754;2023-02-13T09:53:29;4.20;99.90
8862;DHT22;4799;50.996;4.754;2023-02-13T09:56:12;4.30;99.90
8862;DHT22;4799;50.996;4.754;2023-02-13T09:58:46;4.50;99.90
8862;DHT22;4799;50.996;4.754;2023-02-13T10:01:29;4.50;99.90
8862;DHT22;4799;50.996;4.754;2023-02-13T10:07:19;4.70;99.90
8862;DHT22;4799;50.996;4.754;2023-02-13T10:10:06;4.90;99.90
8862;DHT22;4799;50.996;4.754;2023-02-13T10:18:02;5.10;99.90
8862;DHT22;4799;50.996;4.754;2023-02-13T10:20:41;5.20;99.90
8862;DHT22;4799;50.996;4.754;2023-02-13T10:26:21;5.50;99.90
8862;DHT22;4799;50.996;4.754;2023-02-13T10:28:56;5.60;99.90
8862;DHT22;4799;50.996;4.754;2023-02-13T10:31:59;5.70;99.90
8862;DHT22;4799;50.996;4.754;2023-02-13T10:34:27;5.70;99.90
8862;DHT22;4799;50.996;4.754;2023-02-13T10:36:56;5.80;99.90
8862;DHT22;4799;50.996;4.754;2023-02-13T10:39:26;5.90;99.90
8862;DHT22;4799;50.996;4.754;2023-02-13T10:47:18;6.10;99.90
8862;DHT22;4799;50.996;4.754;2023-02-13T10:53:05;6.30;99.90
8862;DHT22;4799;50.996;4.754;2023-02-13T10:58:18;6.50;99.90
8862;DHT22;4799;50.996;4.754;2023-02-13T11:01:05;6.60;99.90
8862;DHT22;4799;50.996;4.754;2023-02-13T11:03:33;6.80;99.90
8862;DHT22;4799;50.996;4.754;2023-02-13T11:06:05;6.80;99.90
8862;DHT22;4799;50.996;4.754;2023-02-13T11:08:40;6.90;99.90
8862;DHT22;4799;50.996;4.754;2023-02-13T11:14:16;7.00;99.90
8862;DHT22;4799;50.996;4.754;2023-02-13T11:16:58;7.10;99.90
8862;DHT22;4799;50.996;4.754;2023-02-13T11:19:32;7.20;99.90
8862;DHT22;4799;50.996;4.754;2023-02-13T11:22:08;7.30;99.90
8862;DHT22;4799;50.996;4.754;2023-02-13T11:24:36;7.30;99.90
8862;DHT22;4799;50.996;4.754;2023-02-13T11:27:06;7.40;99.90
8862;DHT22;4799;50.996;4.754;2023-02-13T11:29:36;7.50;99.90
8862;DHT22;4799;50.996;4.754;2023-02-13T11:32:16;7.50;99.90
8862;DHT22;4799;50.996;4.754;2023-02-13T11:34:42;7.60;99.90
8862;DHT22;4799;50.996;4.754;2023-02-13T11:39:41;7.70;99.90
8862;DHT22;4799;50.996;4.754;2023-02-13T11:42:17;7.80;99.90
8862;DHT22;4799;50.996;4.754;2023-02-13T11:44:49;7.80;99.90
8862;DHT22;4799;50.996;4.754;2023-02-13T11:47:41;7.90;99.90
8862;DHT22;4799;50.996;4.754;2023-02-13T11:50:31;7.90;99.90
8862;DHT22;4799;50.996;4.754;2023-02-13T11:53:06;8.00;99.90
8862;DHT22;4799;50.996;4.754;2023-02-13T11:55:35;8.10;99.90
8862;DHT22;4799;50.996;4.754;2023-02-13T12:00:41;8.20;99.90
8862;DHT22;4799;50.996;4.754;2023-02-13T12:03:29;8.30;99.90
8862;DHT22;4799;50.996;4.754;2023-02-13T12:08:25;8.40;99.90
8862;DHT22;4799;50.996;4.754;2023-02-13T12:10:52;8.40;99.90
8862;DHT22;4799;50.996;4.754;2023-02-13T12:13:37;8.50;99.90
8862;DHT22;4799;50.996;4.754;2023-02-13T12:16:19;8.60;99.90
8862;DHT22;4799;50.996;4.754;2023-02-13T12:18:49;8.60;99.90
8862;DHT22;4799;50.996;4.754;2023-02-13T12:22:35;8.70;99.90
8862;DHT22;4799;50.996;4.754;2023-02-13T12:54:51;9.20;99.90
8862;DHT22;4799;50.996;4.754;2023-02-13T12:57:23;9.30;99.90
8862;DHT22;4799;50.996;4.754;2023-02-13T13:08:21;9.40;99.90
8862;DHT22;4799;50.996;4.754;2023-02-13T13:16:22;9.50;99.90
8862;DHT22;4799;50.996;4.754;2023-02-13T13:21:36;9.60;99.90
8862;DHT22;4799;50.996;4.754;2023-02-13T13:24:31;9.70;99.90
8862;DHT22;4799;50.996;4.754;2023-02-13T13:26:59;9.70;99.90
8862;DHT22;4799;50.996;4.754;2023-02-13T13:29:50;9.70;99.90
8862;DHT22;4799;50.996;4.754;2023-02-13T13:32:18;9.80;99.90
8862;DHT22;4799;50.996;4.754;2023-02-13T13:34:46;9.80;99.90
8862;DHT22;4799;50.996;4.754;2023-02-13T13:40:22;9.90;99.90
8862;DHT22;4799;50.996;4.754;2023-02-13T13:43:01;10.00;99.90
8862;DHT22;4799;50.996;4.754;2023-02-13T13:48:33;10.00;99.90
8862;DHT22;4799;50.996;4.754;2023-02-13T13:51:05;10.10;99.90
8862;DHT22;4799;50.996;4.754;2023-02-13T13:53:31;10.10;99.90
8862;DHT22;4799;50.996;4.754;2023-02-13T13:56:03;10.20;99.90
8862;DHT22;4799;50.996;4.754;2023-02-13T13:58:37;10.20;99.90
8862;DHT22;4799;50.996;4.754;2023-02-13T14:03:52;10.20;99.90
8862;DHT22;4799;50.996;4.754;2023-02-13T14:06:21;10.20;99.90
8862;DHT22;4799;50.996;4.754;2023-02-13T14:11:35;10.30;99.90
8862;DHT22;4799;50.996;4.754;2023-02-13T14:16:47;10.30;99.90
8862;DHT22;4799;50.996;4.754;2023-02-13T14:19:28;10.30;99.90
8862;DHT22;4799;50.996;4.754;2023-02-13T14:25:04;10.30;99.90
8862;DHT22;4799;50.996;4.754;2023-02-13T14:27:36;10.30;99.90
8862;DHT22;4799;50.996;4.754;2023-02-13T14:32:49;10.40;99.90
8862;DHT22;4799;50.996;4.754;2023-02-13T14:35:27;10.40;99.90
8862;DHT22;4799;50.996;4.754;2023-02-13T14:37:56;10.40;99.90
8862;DHT22;4799;50.996;4.754;2023-02-13T14:45:48;10.40;99.90
8862;DHT22;4799;50.996;4.754;2023-02-13T14:48:15;10.40;99.90
8862;DHT22;4799;50.996;4.754;2023-02-13T14:50:52;10.40;99.90
8862;DHT22;4799;50.996;4.754;2023-02-13T14:53:44;10.40;99.90
8862;DHT22;4799;50.996;4.754;2023-02-13T14:56:14;10.40;99.90
8862;DHT22;4799;50.996;4.754;2023-02-13T14:59:15;10.40;99.90
8862;DHT22;4799;50.996;4.754;2023-02-13T15:01:48;10.40;99.90
8862;DHT22;4799;50.996;4.754;2023-02-13T15:04:22;10.40;99.90
8862;DHT22;4799;50.996;4.754;2023-02-13T15:06:53;10.30;99.90
8862;DHT22;4799;50.996;4.754;2023-02-13T15:09:40;10.30;99.90
8862;DHT22;4799;50.996;4.754;2023-02-13T15:12:33;10.30;99.90
8862;DHT22;4799;50.996;4.754;2023-02-13T15:15:00;10.40;99.90
8862;DHT22;4799;50.996;4.754;2023-02-13T15:17:34;10.40;99.90
8862;DHT22;4799;50.996;4.754;2023-02-13T15:20:22;10.40;99.90
8862;DHT22;4799;50.996;4.754;2023-02-13T15:22:49;10.40;99.90
8862;DHT22;4799;50.996;4.754;2023-02-13T15:25:30;10.40;99.90
8862;DHT22;4799;50.996;4.754;2023-02-13T15:27:58;10.30;99.90
8862;DHT22;4799;50.996;4.754;2023-02-13T15:30:26;10.30;99.90
8862;DHT22;4799;50.996;4.754;2023-02-13T15:33:01;10.30;99.90
8862;DHT22;4799;50.996;4.754;2023-02-13T15:35:33;10.20;99.90
8862;DHT22;4799;50.996;4.754;2023-02-13T15:38:13;10.20;99.90
8862;DHT22;4799;50.996;4.754;2023-02-13T15:40:43;10.20;99.90
8862;DHT22;4799;50.996;4.754;2023-02-13T15:43:39;10.20;99.90
8862;DHT22;4799;50.996;4.754;2023-02-13T15:46:31;10.10;99.90
8862;DHT22;4799;50.996;4.754;2023-02-13T15:49:00;10.10;99.90
8862;DHT22;4799;50.996;4.754;2023-02-13T15:51:30;10.10;99.90
8862;DHT22;4799;50.996;4.754;2023-02-13T15:54:02;10.10;99.90
8862;DHT22;4799;50.996;4.754;2023-02-13T15:56:28;10.00;99.90
8862;DHT22;4799;50.996;4.754;2023-02-13T15:58:55;10.00;99.90
8862;DHT22;4799;50.996;4.754;2023-02-13T16:01:23;9.90;99.90
8862;DHT22;4799;50.996;4.754;2023-02-13T16:03:55;9.90;99.90
8862;DHT22;4799;50.996;4.754;2023-02-13T16:06:23;9.90;99.90
8862;DHT22;4799;50.996;4.754;2023-02-13T16:08:57;9.90;99.90
8862;DHT22;4799;50.996;4.754;2023-02-13T16:14:21;9.80;99.90
8862;DHT22;4799;50.996;4.754;2023-02-13T16:17:03;9.70;99.90
8862;DHT22;4799;50.996;4.754;2023-02-13T16:19:53;9.70;99.90
8862;DHT22;4799;50.996;4.754;2023-02-13T16:25:42;9.50;99.90
8862;DHT22;4799;50.996;4.754;2023-02-13T16:27:48;9.40;99.90
8862;DHT22;4799;50.996;4.754;2023-02-13T16:30:36;9.40;99.90
8862;DHT22;4799;50.996;4.754;2023-02-13T16:35:43;9.20;99.90
8862;DHT22;4799;50.996;4.754;2023-02-13T16:38:32;9.20;99.90
8862;DHT22;4799;50.996;4.754;2023-02-13T16:53:59;8.60;99.90
8862;DHT22;4799;50.996;4.754;2023-02-13T16:56:25;8.50;99.90
8862;DHT22;4799;50.996;4.754;2023-02-13T16:59:17;8.50;99.90
8862;DHT22;4799;50.996;4.754;2023-02-13T17:01:46;8.40;99.90
8862;DHT22;4799;50.996;4.754;2023-02-13T17:04:23;8.30;99.90
8862;DHT22;4799;50.996;4.754;2023-02-13T17:06:54;8.20;99.90
8862;DHT22;4799;50.996;4.754;2023-02-13T17:09:20;8.10;99.90
8862;DHT22;4799;50.996;4.754;2023-02-13T17:11:50;8.10;99.90
8862;DHT22;4799;50.996;4.754;2023-02-13T17:14:16;8.00;99.90
8862;DHT22;4799;50.996;4.754;2023-02-13T17:16:42;7.90;99.90
8862;DHT22;4799;50.996;4.754;2023-02-13T17:19:08;7.80;99.90
8862;DHT22;4799;50.996;4.754;2023-02-13T17:21:34;7.80;99.90
8862;DHT22;4799;50.996;4.754;2023-02-13T17:24:01;7.70;99.90
8862;DHT22;4799;50.996;4.754;2023-02-13T17:26:27;7.60;99.90
8862;DHT22;4799;50.996;4.754;2023-02-13T17:28:53;7.50;99.90
8862;DHT22;4799;50.996;4.754;2023-02-13T17:31:18;7.40;99.90
8862;DHT22;4799;50.996;4.754;2023-02-13T17:33:44;7.40;99.90
8862;DHT22;4799;50.996;4.754;2023-02-13T17:36:11;7.30;99.90
8862;DHT22;4799;50.996;4.754;2023-02-13T17:38:37;7.20;99.90
8862;DHT22;4799;50.996;4.754;2023-02-13T17:41:07;7.10;99.90
8862;DHT22;4799;50.996;4.754;2023-02-13T17:43:36;7.10;99.90
8862;DHT22;4799;50.996;4.754;2023-02-13T17:46:02;7.00;99.90
8862;DHT22;4799;50.996;4.754;2023-02-13T17:48:28;7.00;99.90
8862;DHT22;4799;50.996;4.754;2023-02-13T17:50:54;7.10;99.90
8862;DHT22;4799;50.996;4.754;2023-02-13T17:53:23;7.00;99.90
8862;DHT22;4799;50.996;4.754;2023-02-13T17:55:49;7.00;99.90
8862;DHT22;4799;50.996;4.754;2023-02-13T17:58:15;7.00;99.90
8862;DHT22;4799;50.996;4.754;2023-02-13T18:00:41;6.90;99.90
8862;DHT22;4799;50.996;4.754;2023-02-13T18:03:07;6.80;99.90
8862;DHT22;4799;50.996;4.754;2023-02-13T18:05:32;6.80;99.90
8862;DHT22;4799;50.996;4.754;2023-02-13T18:07:59;6.70;99.90
8862;DHT22;4799;50.996;4.754;2023-02-13T18:10:30;6.70;99.90
8862;DHT22;4799;50.996;4.754;2023-02-13T18:12:57;6.60;99.90
8862;DHT22;4799;50.996;4.754;2023-02-13T18:15:32;6.50;99.90
8862;DHT22;4799;50.996;4.754;2023-02-13T18:17:58;6.40;99.90
8862;DHT22;4799;50.996;4.754;2023-02-13T18:20:24;6.40;99.90
8862;DHT22;4799;50.996;4.754;2023-02-13T18:22:50;6.30;99.90
8862;DHT22;4799;50.996;4.754;2023-02-13T18:25:17;6.30;99.90
8862;DHT22;4799;50.996;4.754;2023-02-13T18:27:43;6.20;99.90
8862;DHT22;4799;50.996;4.754;2023-02-13T18:30:12;6.10;99.90
8862;DHT22;4799;50.996;4.754;2023-02-13T18:32:39;6.10;99.90
8862;DHT22;4799;50.996;4.754;2023-02-13T18:35:05;6.00;99.90
8862;DHT22;4799;50.996;4.754;2023-02-13T18:37:32;5.90;99.90
8862;DHT22;4799;50.996;4.754;2023-02-13T18:40:00;5.90;99.90
8862;DHT22;4799;50.996;4.754;2023-02-13T18:42:26;5.80;99.90
8862;DHT22;4799;50.996;4.754;2023-02-13T18:44:52;5.80;99.90
8862;DHT22;4799;50.996;4.754;2023-02-13T18:47:18;5.80;99.90
8862;DHT22;4799;50.996;4.754;2023-02-13T18:49:43;5.70;99.90
8862;DHT22;4799;50.996;4.754;2023-02-13T18:52:12;5.70;99.90
8862;DHT22;4799;50.996;4.754;2023-02-13T18:54:38;5.70;99.90
8862;DHT22;4799;50.996;4.754;2023-02-13T18:57:04;5.60;99.90
8862;DHT22;4799;50.996;4.754;2023-02-13T18:59:30;5.60;99.90
8862;DHT22;4799;50.996;4.754;2023-02-13T19:01:55;5.50;99.90
8862;DHT22;4799;50.996;4.754;2023-02-13T19:04:21;5.40;99.90
8862;DHT22;4799;50.996;4.754;2023-02-13T19:06:47;5.40;99.90
8862;DHT22;4799;50.996;4.754;2023-02-13T19:09:13;5.30;99.90
8862;DHT22;4799;50.996;4.754;2023-02-13T19:11:39;5.30;99.90
8862;DHT22;4799;50.996;4.754;2023-02-13T19:14:05;5.20;99.90
8862;DHT22;4799;50.996;4.754;2023-02-13T19:16:33;5.20;99.90
8862;DHT22;4799;50.996;4.754;2023-02-13T19:19:01;5.10;99.90